Time;durP1;ratioP1;P1;durP2;ratioP2;P2;SDS_P1;SDS_P2;PMS_P1;PMS_P2;Temp;Humidity;BMP_temperature;BMP_pressure;BME280_temperature;BME280_humidity;BME280_pressure;Samples;Min_cycle;Max_cycle;Signal;HPM_P1;HPM_P2
2022/09/12 00:02:36;;;;;;;41.83;24.85;;;;;;;11.65;100.00;96907.13;10356200;28;20212;-75
2022/09/12 00:07:37;;;;;;;36.28;23.02;;;;;;;11.80;100.00;96890.78;10370475;28;20662;-76
2022/09/12 00:12:38;;;;;;;32.92;21.17;;;;;;;11.88;100.00;96881.16;10373760;28;20296;-76
2022/09/12 00:17:38;;;;;;;34.20;20.58;;;;;;;11.89;100.00;96881.97;10373060;28;20216;-76
2022/09/12 00:22:39;;;;;;;31.38;22.00;;;;;;;11.88;100.00;96869.81;10355622;28;20246;-76
2022/09/12 00:27:39;;;;;;;35.03;21.52;;;;;;;11.76;100.00;96864.88;10373118;28;20284;-76
2022/09/12 00:32:39;;;;;;;31.85;20.65;;;;;;;11.81;100.00;96853.88;10373026;28;20204;-75
2022/09/12 00:37:40;;;;;;;32.58;21.88;;;;;;;11.80;100.00;96856.66;10372836;28;20229;-75
2022/09/12 00:42:40;;;;;;;30.85;21.27;;;;;;;11.68;100.00;96856.94;10372123;28;20276;-75
2022/09/12 00:47:41;;;;;;;29.02;20.33;;;;;;;11.65;100.00;96849.41;10372426;28;20194;-75
2022/09/12 00:52:53;;;;;;;37.40;20.52;;;;;;;11.50;100.00;96849.22;10354112;28;20197;-75
2022/09/12 00:58:10;;;;;;;34.67;22.13;;;;;;;11.37;100.00;96847.00;10338906;28;20308;-75
2022/09/12 01:03:13;;;;;;;31.65;20.20;;;;;;;11.42;100.00;96836.88;10352193;28;20228;-76
2022/09/12 01:08:13;;;;;;;33.58;20.73;;;;;;;11.20;100.00;96840.06;10353815;28;20680;-76
2022/09/12 01:13:14;;;;;;;34.08;22.80;;;;;;;11.29;100.00;96844.38;10353791;28;20200;-75
2022/09/12 01:18:29;;;;;;;33.25;21.65;;;;;;;11.02;100.00;96850.63;10353303;28;20589;-76
2022/09/12 01:24:12;;;;;;;40.03;22.80;;;;;;;10.83;100.00;96854.28;10353187;28;20200;-75
2022/09/12 01:29:32;;;;;;;38.00;21.45;;;;;;;10.69;100.00;96853.06;10369851;28;20193;-75
2022/09/12 01:34:42;;;;;;;38.33;21.77;;;;;;;10.69;100.00;96853.88;10368615;28;20295;-75
2022/09/12 01:39:56;;;;;;;49.08;25.27;;;;;;;10.51;100.00;96856.53;10351125;28;20284;-75
2022/09/12 01:45:11;;;;;;;47.97;23.92;;;;;;;10.57;100.00;96862.97;10368429;28;20192;-75
2022/09/12 01:50:14;;;;;;;41.72;23.38;;;;;;;10.64;100.00;96858.78;10369762;28;20607;-75
2022/09/12 01:55:19;;;;;;;48.63;23.95;;;;;;;10.64;100.00;96855.31;10368161;28;20271;-75
2022/09/12 02:00:19;;;;;;;49.97;24.40;;;;;;;10.57;100.00;96859.53;10347759;28;20233;-75
2022/09/12 02:05:28;;;;;;;56.25;26.13;;;;;;;10.59;100.00;96866.25;10369526;28;20189;-75
2022/09/12 02:10:31;;;;;;;60.03;29.45;;;;;;;10.78;100.00;96869.63;10351394;28;20257;-75
2022/09/12 02:15:37;;;;;;;53.83;27.92;;;;;;;10.95;100.00;96874.03;10351816;28;20276;-75
2022/09/12 02:20:38;;;;;;;67.13;32.08;;;;;;;10.98;100.00;96870.25;10367776;28;20236;-75
2022/09/12 02:25:41;;;;;;;57.78;29.83;;;;;;;11.10;100.00;96873.44;10350635;28;20184;-75
2022/09/12 02:30:47;;;;;;;69.25;33.13;;;;;;;11.15;100.00;96874.63;10350544;28;20654;-75
2022/09/12 02:35:55;;;;;;;60.15;30.95;;;;;;;11.29;100.00;96872.41;10350948;28;20228;-75
2022/09/12 02:40:55;;;;;;;62.30;30.38;;;;;;;11.39;100.00;96873.09;10368014;28;20182;-76
2022/09/12 02:45:56;;;;;;;72.18;32.33;;;;;;;11.30;100.00;96860.91;10350311;28;20193;-75
2022/09/12 02:50:56;;;;;;;82.40;35.58;;;;;;;11.26;100.00;96859.59;10334191;28;20200;-75
2022/09/12 02:55:57;;;;;;;81.75;37.08;;;;;;;11.35;100.00;96854.22;10349738;28;20593;-75
2022/09/12 03:01:13;;;;;;;66.60;33.25;;;;;;;11.51;100.00;96860.50;10349731;28;20233;-74
2022/09/12 03:06:17;;;;;;;74.03;33.58;;;;;;;11.50;100.00;96866.72;10344867;28;20200;-74
2022/09/12 03:11:26;;;;;;;72.63;32.25;;;;;;;11.49;100.00;96862.47;10343296;28;20727;-75
2022/09/12 03:16:43;;;;;;;57.22;29.88;;;;;;;11.73;100.00;96869.59;10326959;28;20282;-74
2022/09/12 03:21:52;;;;;;;56.05;30.67;;;;;;;11.85;100.00;96857.84;10342966;28;20283;-74
2022/09/12 03:27:00;;;;;;;61.25;34.25;;;;;;;11.81;100.00;96845.16;10360691;28;20272;-75
2022/09/12 03:32:00;;;;;;;65.07;35.17;;;;;;;11.71;100.00;96822.50;10348184;28;20200;-76
2022/09/12 03:37:01;;;;;;;61.75;34.72;;;;;;;11.68;100.00;96817.59;10368362;28;20217;-77
2022/09/12 03:42:01;;;;;;;65.72;36.40;;;;;;;11.68;100.00;96801.84;10369195;28;20284;-76
2022/09/12 03:47:02;;;;;;;62.75;34.63;;;;;;;11.69;100.00;96803.50;10367957;28;20225;-75
2022/09/12 03:52:03;;;;;;;69.97;36.03;;;;;;;11.63;100.00;96798.06;10367940;28;20197;-76
2022/09/12 03:57:03;;;;;;;67.40;33.83;;;;;;;11.59;100.00;96808.91;10368046;28;20233;-76
2022/09/12 04:02:03;;;;;;;66.65;32.67;;;;;;;11.72;100.00;96805.78;10370087;28;20236;-75
2022/09/12 04:07:04;;;;;;;65.68;34.05;;;;;;;11.63;100.00;96800.69;10374124;28;20619;-76
2022/09/12 04:12:05;;;;;;;71.32;36.35;;;;;;;11.57;100.00;96813.47;10373783;28;20656;-76
2022/09/12 04:17:05;;;;;;;84.72;37.88;;;;;;;11.55;100.00;96815.44;10373728;28;20225;-76
2022/09/12 04:22:05;;;;;;;62.03;34.22;;;;;;;11.72;100.00;96813.66;10355103;28;20189;-76
2022/09/12 04:27:06;;;;;;;70.40;33.45;;;;;;;11.74;100.00;96809.06;10373403;28;20269;-75
2022/09/12 04:32:06;;;;;;;66.70;35.03;;;;;;;11.70;100.00;96809.56;10372992;28;20654;-76
2022/09/12 04:37:07;;;;;;;65.07;32.42;;;;;;;11.60;100.00;96818.38;10355046;28;20221;-75
2022/09/12 04:42:07;;;;;;;70.78;34.50;;;;;;;11.72;100.00;96815.47;10371242;28;20212;-76
2022/09/12 04:47:07;;;;;;;67.47;34.40;;;;;;;11.78;100.00;96820.09;10372057;28;20657;-75
2022/09/12 04:52:08;;;;;;;59.15;31.90;;;;;;;11.86;100.00;96819.28;10372133;28;20732;-76
2022/09/12 04:57:09;;;;;;;69.68;34.17;;;;;;;11.69;100.00;96818.44;10371963;28;20655;-75
2022/09/12 05:02:09;;;;;;;63.47;31.77;;;;;;;11.75;100.00;96818.59;10372140;28;20232;-75
2022/09/12 05:07:10;;;;;;;64.90;32.47;;;;;;;11.77;100.00;96816.63;10371661;28;20197;-75
2022/09/12 05:12:10;;;;;;;65.55;30.15;;;;;;;11.85;100.00;96825.50;10371137;28;20742;-75
2022/09/12 05:17:11;;;;;;;57.10;31.85;;;;;;;11.94;100.00;96814.91;10371459;28;20228;-75
2022/09/12 05:22:11;;;;;;;67.50;33.03;;;;;;;11.81;100.00;96822.38;10370335;28;20201;-75
2022/09/12 05:27:11;;;;;;;51.90;28.42;;;;;;;11.93;100.00;96828.19;10371559;28;20243;-75
2022/09/12 05:32:12;;;;;;;53.40;28.73;;;;;;;12.09;100.00;96824.75;10370180;28;20201;-75
2022/09/12 05:37:12;;;;;;;57.72;30.02;;;;;;;12.19;100.00;96827.19;10370798;28;20214;-75
2022/09/12 05:42:13;;;;;;;49.10;28.67;;;;;;;12.22;100.00;96832.97;10370726;28;20592;-75
2022/09/12 05:47:13;;;;;;;58.92;28.70;;;;;;;12.17;100.00;96839.69;10370203;28;20189;-76
2022/09/12 05:52:14;;;;;;;47.85;27.02;;;;;;;12.27;100.00;96837.72;10352576;28;20620;-75
2022/09/12 05:57:14;;;;;;;45.47;26.45;;;;;;;12.46;100.00;96842.63;10369770;28;20216;-75
2022/09/12 06:02:14;;;;;;;48.22;27.88;;;;;;;12.67;100.00;96843.94;10369889;28;20716;-76
2022/09/12 06:07:15;;;;;;;50.50;28.23;;;;;;;12.77;100.00;96839.34;10366138;28;20752;-75
2022/09/12 06:12:15;;;;;;;48.55;26.02;;;;;;;12.85;100.00;96841.13;10351803;28;20283;-75
2022/09/12 06:17:15;;;;;;;39.00;23.60;;;;;;;13.01;100.00;96838.44;10368688;28;20221;-75
2022/09/12 06:22:17;;;;;;;37.10;22.30;;;;;;;13.15;100.00;96828.22;10368975;28;20251;-75
2022/09/12 06:27:18;;;;;;;39.15;23.10;;;;;;;13.06;100.00;96819.50;10369179;28;20193;-75
2022/09/12 06:32:18;;;;;;;37.42;22.65;;;;;;;13.11;100.00;96800.59;10368036;28;20197;-76
2022/09/12 06:37:18;;;;;;;34.45;21.70;;;;;;;13.27;100.00;96794.47;10368689;28;20426;-75
2022/09/12 06:42:19;;;;;;;33.90;21.52;;;;;;;13.62;100.00;96787.09;10368173;28;20193;-75
2022/09/12 06:47:29;;;;;;;29.55;19.80;;;;;;;13.76;100.00;96777.63;10350224;28;20186;-75
2022/09/12 06:52:29;;;;;;;28.80;19.73;;;;;;;13.72;100.00;96769.22;10367936;28;20201;-75
2022/09/12 06:57:31;;;;;;;26.90;18.48;;;;;;;14.10;100.00;96782.47;10367586;28;20279;-74
2022/09/12 07:02:31;;;;;;;29.23;18.23;;;;;;;14.14;100.00;96770.56;10372045;28;20255;-75
2022/09/12 07:07:33;;;;;;;27.83;19.23;;;;;;;13.96;100.00;96777.97;10374605;28;20850;-75
2022/09/12 07:12:33;;;;;;;33.10;21.17;;;;;;;13.74;100.00;96778.59;10383085;28;20560;-75
2022/09/12 07:17:33;;;;;;;30.38;19.27;;;;;;;14.43;100.00;96779.56;10379694;28;20255;-74
2022/09/12 07:22:34;;;;;;;23.02;17.48;;;;;;;14.60;100.00;96788.97;10377662;28;20201;-73
2022/09/12 07:27:36;;;;;;;25.10;18.60;;;;;;;14.37;100.00;96788.19;10371972;28;20296;-74
2022/09/12 07:32:36;;;;;;;24.10;16.95;;;;;;;15.00;100.00;96778.16;10367080;28;20201;-73
2022/09/12 07:37:37;;;;;;;24.35;16.35;;;;;;;15.33;100.00;96773.31;10367351;28;20701;-73
2022/09/12 07:42:37;;;;;;;28.80;16.83;;;;;;;15.24;100.00;96779.69;10366817;28;20572;-73
2022/09/12 07:47:39;;;;;;;20.42;15.40;;;;;;;14.80;100.00;96775.25;10368826;28;20535;-73
2022/09/12 07:52:40;;;;;;;25.45;16.85;;;;;;;14.33;100.00;96773.72;10367180;28;20194;-73
2022/09/12 07:57:40;;;;;;;20.15;13.05;;;;;;;15.15;100.00;96768.41;10366281;28;20279;-73
2022/09/12 08:02:40;;;;;;;18.83;12.20;;;;;;;15.75;100.00;96767.47;10366752;28;20207;-72
2022/09/12 08:07:41;;;;;;;18.02;12.82;;;;;;;15.33;100.00;96768.03;10366408;28;20196;-72
2022/09/12 08:12:41;;;;;;;17.10;10.70;;;;;;;15.99;100.00;96771.59;10365648;28;20201;-72
2022/09/12 08:17:41;;;;;;;11.85;7.93;;;;;;;16.56;100.00;96765.31;10369064;28;20252;-72
2022/09/12 08:22:42;;;;;;;12.05;7.63;;;;;;;16.58;100.00;96762.50;10373175;28;20335;-73
2022/09/12 08:27:42;;;;;;;9.60;7.20;;;;;;;16.79;100.00;96753.66;10373185;28;20277;-72
2022/09/12 08:32:43;;;;;;;9.20;7.47;;;;;;;17.12;100.00;96750.44;10372872;28;20216;-72
2022/09/12 08:37:43;;;;;;;10.95;7.30;;;;;;;18.25;100.00;96733.94;10373150;28;20229;-72
2022/09/12 08:43:10;;;;;;;8.23;6.97;;;;;;;18.86;96.43;96718.78;10372389;28;20315;-72
2022/09/12 08:48:11;;;;;;;7.35;5.57;;;;;;;19.18;92.36;96717.03;10372691;28;20189;-73
2022/09/12 08:53:19;;;;;;;8.88;5.63;;;;;;;18.91;90.49;96705.69;10354918;28;20193;-72
2022/09/12 08:58:21;;;;;;;7.28;4.40;;;;;;;20.11;85.69;96693.59;10354466;28;20230;-72
2022/09/12 09:03:44;;;;;;;7.03;4.88;;;;;;;20.04;79.93;96658.25;10371978;28;20676;-72
2022/09/12 09:08:57;;;;;;;7.20;4.72;;;;;;;20.19;80.99;96677.34;10354313;28;20221;-72
2022/09/12 09:14:47;;;;;;;6.95;5.00;;;;;;;19.41;87.92;96732.44;10353932;28;20631;-72
2022/09/12 09:19:56;;;;;;;5.15;3.88;;;;;;;18.43;91.20;96743.13;10369697;28;20197;-72
2022/09/12 09:25:02;;;;;;;4.47;2.88;;;;;;;20.71;79.43;96665.63;10353539;28;20654;-72
2022/09/12 09:30:02;;;;;;;2.83;2.53;;;;;;;22.17;72.92;96638.72;10352991;28;20221;-73
2022/09/12 09:35:31;;;;;;;4.22;3.83;;;;;;;21.46;69.20;96598.63;10370684;28;20311;-72
2022/09/12 09:41:02;;;;;;;6.25;4.07;;;;;;;21.18;72.86;96634.69;10353101;28;20219;-72
2022/09/12 09:46:03;;;;;;;5.32;4.03;;;;;;;19.89;79.19;96699.28;10370201;28;20860;-72
2022/09/12 09:51:05;;;;;;;4.60;4.10;;;;;;;18.81;83.14;96722.03;10370432;28;20189;-72
2022/09/12 09:56:14;;;;;;;4.00;3.03;;;;;;;19.34;78.31;96669.75;10352545;28;20375;-71
2022/09/12 10:01:16;;;;;;;7.15;2.72;;;;;;;19.53;75.82;96649.41;10352039;28;20264;-73
2022/09/12 10:06:19;;;;;;;4.55;4.07;;;;;;;18.78;79.25;96680.00;10352040;28;20235;-72
2022/09/12 10:11:21;;;;;;;4.45;2.70;;;;;;;21.60;74.18;96657.91;10351687;28;20248;-72
2022/09/12 10:16:31;;;;;;;3.72;2.17;;;;;;;22.26;67.16;96591.97;10369307;28;20227;-73
2022/09/12 10:21:46;;;;;;;2.95;1.90;;;;;;;22.76;60.68;96507.81;10368731;28;20201;-73
2022/09/12 10:27:06;;;;;;;2.40;2.20;;;;;;;21.22;66.07;96580.97;10351427;28;20189;-73
2022/09/12 10:32:07;;;;;;;3.05;2.15;;;;;;;20.63;65.73;96549.56;10351113;28;20185;-73
2022/09/12 10:37:15;;;;;;;1.63;1.52;;;;;;;21.70;61.68;96518.69;10351150;28;20708;-73
2022/09/12 10:42:46;;;;;;;2.47;2.28;;;;;;;21.20;66.35;96602.50;10349878;28;20189;-73
2022/09/12 10:47:47;;;;;;;2.92;2.15;;;;;;;21.13;66.94;96596.44;10368197;28;20196;-73
2022/09/12 10:52:48;;;;;;;1.88;1.77;;;;;;;20.52;67.07;96590.22;10367770;28;20289;-72
2022/09/12 10:58:27;;;;;;;1.95;1.75;;;;;;;21.63;64.35;96556.16;10350307;28;20232;-73
2022/09/12 11:04:00;;;;;;;3.22;1.90;;;;;;;22.62;58.70;96483.28;10349980;28;20240;-73
2022/09/12 11:09:38;;;;;;;1.55;1.45;;;;;;;24.25;55.16;96463.03;10367402;28;20197;-73
2022/09/12 11:15:02;;;;;;;2.08;1.63;;;;;;;24.87;52.87;96443.03;10367150;28;20197;-72
2022/09/12 11:20:18;;;;;;;2.15;1.40;;;;;;;25.82;51.75;96461.19;10366815;28;20209;-73
2022/09/12 11:25:29;;;;;;;3.08;2.78;;;;;;;24.97;54.38;96488.69;10350173;28;20189;-73
2022/09/12 11:30:38;;;;;;;4.20;2.78;;;;;;;23.58;55.93;96486.19;10366659;28;20328;-73
2022/09/12 11:35:46;;;;;;;2.42;1.92;;;;;;;22.86;58.16;96509.84;10349437;28;20360;-73
2022/09/12 11:40:51;;;;;;;4.85;1.98;;;;;;;22.20;61.07;96554.75;10349701;28;20218;-73
2022/09/12 11:45:51;;;;;;;3.20;2.90;;;;;;;23.26;62.00;96596.38;10349892;28;20276;-72
2022/09/12 11:50:51;;;;;;;2.58;2.30;;;;;;;24.10;56.57;96515.28;10350709;28;20185;-72
2022/09/12 11:55:56;;;;;;;3.28;2.25;;;;;;;23.80;57.50;96532.53;10374811;28;20669;-72
2022/09/12 12:01:19;;;;;;;2.22;2.03;;;;;;;23.83;55.50;96491.13;10356872;28;20327;-72
2022/09/12 12:06:47;;;;;;;5.10;2.10;;;;;;;23.85;54.49;96475.66;10356800;28;20193;-72
2022/09/12 12:11:52;;;;;;;2.10;1.48;;;;;;;23.11;55.94;96490.03;10330850;28;20222;-72
2022/09/12 12:16:53;;;;;;;2.60;1.52;;;;;;;23.13;57.95;96536.81;10315890;28;20225;-72
2022/09/12 12:21:53;;;;;;;2.65;1.80;;;;;;;23.54;53.19;96444.94;10315429;28;20190;-73
2022/09/12 12:27:04;;;;;;;1.65;1.55;;;;;;;23.21;56.90;96500.06;10315500;28;20193;-72
2022/09/12 12:32:04;;;;;;;2.30;1.38;;;;;;;22.76;55.45;96462.41;10332775;28;20288;-73
2022/09/12 12:37:17;;;;;;;1.73;1.30;;;;;;;23.15;55.71;96472.44;10315018;28;20710;-73
2022/09/12 12:42:33;;;;;;;1.75;1.33;;;;;;;22.97;55.86;96465.44;10331850;28;20186;-73
2022/09/12 12:47:41;;;;;;;2.00;1.60;;;;;;;24.72;52.59;96452.56;10328996;28;20201;-73
2022/09/12 12:52:52;;;;;;;1.95;1.65;;;;;;;24.75;51.05;96419.91;10330851;28;20202;-72
2022/09/12 12:57:55;;;;;;;1.13;1.05;;;;;;;26.22;47.76;96399.88;10331788;28;20677;-72
2022/09/12 13:03:07;;;;;;;2.55;1.00;;;;;;;25.90;47.32;96364.06;10313319;28;20186;-72
2022/09/12 13:08:30;;;;;;;1.10;0.93;;;;;;;26.55;45.49;96350.25;10331108;28;20241;-72
2022/09/12 13:13:30;;;;;;;1.15;0.90;;;;;;;26.89;43.52;96312.09;10313466;28;20655;-73
2022/09/12 13:18:44;;;;;;;1.92;1.10;;;;;;;27.65;43.75;96339.91;10330356;28;20245;-72
2022/09/12 13:24:00;;;;;;;1.40;1.20;;;;;;;26.91;45.12;96330.66;10313360;28;20562;-72
2022/09/12 13:29:17;;;;;;;1.98;1.30;;;;;;;27.90;43.45;96336.31;10330320;28;20213;-72
2022/09/12 13:34:20;;;;;;;1.23;1.08;;;;;;;28.11;43.63;96341.59;10312858;28;20580;-72
2022/09/12 13:39:25;;;;;;;0.90;0.80;;;;;;;26.70;47.08;96371.00;10328829;28;20226;-72
2022/09/12 13:44:26;;;;;;;1.67;1.08;;;;;;;26.24;45.23;96309.16;10312549;28;20190;-72
2022/09/12 13:49:28;;;;;;;1.10;1.00;;;;;;;24.00;49.02;96306.47;10312660;28;20190;-73
2022/09/12 13:54:29;;;;;;;0.80;0.80;;;;;;;24.98;46.79;96297.38;10313031;28;20202;-72
2022/09/12 13:59:41;;;;;;;2.42;1.48;;;;;;;24.79;47.20;96305.00;10328748;28;20230;-72
2022/09/12 14:10:06;;;;;;;1.75;1.00;;;;;;;25.97;46.32;96337.78;10313738;28;20236;-72
2022/09/12 14:15:16;;;;;;;2.50;1.27;;;;;;;24.89;48.50;96334.56;10327634;28;20193;-72
2022/09/12 14:20:18;;;;;;;2.70;1.38;;;;;;;25.56;47.98;96347.56;10311394;28;20677;-71
2022/09/12 14:25:21;;;;;;;2.00;1.08;;;;;;;24.70;49.52;96352.91;10326838;28;20221;-72
2022/09/12 14:30:39;;;;;;;1.05;0.93;;;;;;;23.55;51.11;96337.75;10311091;28;20580;-71
2022/09/12 14:35:41;;;;;;;1.75;1.27;;;;;;;23.92;51.40;96361.22;10310207;28;20221;-71
2022/09/12 14:40:50;;;;;;;1.35;1.10;;;;;;;23.06;54.31;96396.38;10310801;28;20238;-71
2022/09/12 14:45:58;;;;;;;1.90;1.13;;;;;;;22.97;54.85;96403.97;10310556;28;20198;-71
2022/09/12 14:51:00;;;;;;;1.20;1.10;;;;;;;23.92;50.98;96352.38;10310587;28;20197;-71
2022/09/12 14:56:08;;;;;;;1.92;1.30;;;;;;;23.12;53.48;96374.06;10310425;28;20258;-71
2022/09/12 15:01:11;;;;;;;2.13;1.25;;;;;;;23.67;53.97;96396.47;10327008;28;20324;-72
2022/09/12 15:06:36;;;;;;;1.95;1.27;;;;;;;23.15;53.20;96358.38;10327273;28;20198;-71
2022/09/12 15:11:37;;;;;;;1.60;1.23;;;;;;;23.76;52.55;96367.44;10309399;28;20566;-72
2022/09/12 15:16:37;;;;;;;5.03;1.70;;;;;;;23.54;52.77;96356.72;10326977;28;20229;-72
2022/09/12 15:21:37;;;;;;;4.00;1.30;;;;;;;23.05;54.48;96374.22;10326752;28;20197;-72
2022/09/12 15:26:38;;;;;;;1.83;1.55;;;;;;;21.96;57.47;96412.56;10329868;28;20697;-72
2022/09/12 15:31:39;;;;;;;3.80;1.30;;;;;;;22.42;55.22;96374.25;10334978;28;20197;-72
2022/09/12 15:36:39;;;;;;;1.48;1.05;;;;;;;22.66;55.34;96384.00;10334897;28;20685;-71
2022/09/12 15:41:40;;;;;;;3.40;1.10;;;;;;;22.55;55.17;96375.00;10334521;28;20293;-71
2022/09/12 15:46:40;;;;;;;1.55;1.13;;;;;;;21.71;59.51;96441.16;10334364;28;20201;-71
2022/09/12 15:51:41;;;;;;;1.30;1.20;;;;;;;21.39;60.34;96448.69;10334345;28;20324;-72
2022/09/12 15:56:42;;;;;;;2.90;1.25;;;;;;;21.41;59.47;96427.13;10316666;28;20222;-72
2022/09/12 16:01:43;;;;;;;1.25;1.13;;;;;;;21.10;59.34;96413.09;10333753;28;20295;-71
2022/09/12 16:06:43;;;;;;;2.65;1.10;;;;;;;20.61;61.16;96439.84;10316525;28;20654;-71
2022/09/12 16:11:44;;;;;;;2.38;1.13;;;;;;;20.09;65.60;96501.50;10333029;28;20194;-71
2022/09/12 16:16:50;;;;;;;2.25;1.45;;;;;;;19.52;68.18;96517.59;10333990;28;20221;-72
2022/09/12 16:21:51;;;;;;;1.52;1.40;;;;;;;19.21;69.51;96530.69;10333068;28;20555;-73
2022/09/12 16:26:51;;;;;;;3.55;1.45;;;;;;;18.48;73.76;96555.81;10332761;28;20186;-74
2022/09/12 16:31:51;;;;;;;1.75;1.50;;;;;;;18.16;77.08;96555.72;10332559;28;20194;-72
2022/09/12 16:36:52;;;;;;;2.45;1.27;;;;;;;17.69;81.82;96556.78;10331293;28;20325;-72
2022/09/12 16:41:52;;;;;;;4.55;1.70;;;;;;;17.03;88.80;96569.78;10330789;28;20201;-72
2022/09/12 16:46:52;;;;;;;2.90;2.03;;;;;;;16.35;91.37;96544.09;10332023;28;20211;-72
2022/09/12 16:51:53;;;;;;;2.65;1.60;;;;;;;16.60;95.93;96543.59;10332292;28;20292;-72
2022/09/12 16:56:53;;;;;;;4.18;1.90;;;;;;;15.85;100.00;96543.47;10331739;28;20312;-72
2022/09/12 17:01:53;;;;;;;1.60;1.50;;;;;;;15.14;100.00;96560.97;10331189;28;20234;-72
2022/09/12 17:06:54;;;;;;;2.72;1.60;;;;;;;15.37;100.00;96548.56;10331852;28;20284;-72
2022/09/12 17:11:55;;;;;;;3.20;1.90;;;;;;;15.21;100.00;96537.28;10330950;28;20204;-72
2022/09/12 17:16:55;;;;;;;10.65;4.97;;;;;;;15.25;100.00;96541.19;10331683;28;20229;-71
2022/09/12 17:21:56;;;;;;;9.75;6.60;;;;;;;14.70;100.00;96542.66;10331074;28;20198;-72
2022/09/12 17:26:58;;;;;;;6.53;5.88;;;;;;;14.51;100.00;96558.03;10330783;28;20549;-71
2022/09/12 17:31:58;;;;;;;7.25;3.97;;;;;;;14.19;100.00;96560.06;10330557;28;20205;-73
2022/09/12 17:36:58;;;;;;;7.72;3.47;;;;;;;14.02;100.00;96559.44;10330167;28;20280;-74
2022/09/12 17:41:59;;;;;;;4.18;2.50;;;;;;;14.25;100.00;96556.72;10331088;28;20194;-73
2022/09/12 17:46:59;;;;;;;4.50;3.10;;;;;;;14.06;100.00;96555.47;10338954;28;20285;-72
2022/09/12 17:52:01;;;;;;;6.15;3.38;;;;;;;13.76;100.00;96570.44;10349397;28;20208;-73
2022/09/12 17:57:03;;;;;;;5.88;3.42;;;;;;;13.60;100.00;96560.06;10334575;28;20575;-72
2022/09/12 18:02:13;;;;;;;4.30;3.05;;;;;;;13.50;100.00;96570.84;10340992;28;20233;-72
2022/09/12 18:07:15;;;;;;;4.22;2.95;;;;;;;13.48;100.00;96568.38;10335976;28;20634;-73
2022/09/12 18:12:16;;;;;;;6.60;3.50;;;;;;;13.30;100.00;96571.31;10340422;28;20289;-72
2022/09/12 18:17:17;;;;;;;4.05;3.25;;;;;;;13.05;100.00;96561.97;10349182;28;20641;-73
2022/09/12 18:22:17;;;;;;;4.28;3.88;;;;;;;13.08;100.00;96572.13;10338785;28;20194;-74
2022/09/12 18:27:17;;;;;;;4.82;3.70;;;;;;;12.99;100.00;96569.56;10354441;28;20259;-74
2022/09/12 18:32:18;;;;;;;5.65;3.80;;;;;;;12.81;100.00;96567.22;10368759;28;20185;-73
2022/09/12 18:37:18;;;;;;;4.10;3.67;;;;;;;12.79;100.00;96568.41;10368499;28;20284;-73
2022/09/12 18:42:19;;;;;;;4.63;3.72;;;;;;;12.59;100.00;96578.53;10368362;28;20197;-73
2022/09/12 18:47:19;;;;;;;4.32;3.50;;;;;;;12.41;100.00;96579.59;10368783;28;20324;-73
2022/09/12 18:52:19;;;;;;;4.90;4.07;;;;;;;12.33;100.00;96584.88;10367877;28;20191;-73
2022/09/12 18:57:20;;;;;;;5.03;4.07;;;;;;;12.20;100.00;96590.66;10368575;28;20268;-73
2022/09/12 19:02:20;;;;;;;5.60;3.70;;;;;;;12.11;100.00;96589.06;10366771;28;20316;-73
2022/09/12 19:07:21;;;;;;;11.85;3.67;;;;;;;12.10;100.00;96590.06;10368747;28;20189;-74
2022/09/12 19:12:21;;;;;;;5.88;3.67;;;;;;;11.92;100.00;96583.19;10367019;28;20200;-74
2022/09/12 19:17:21;;;;;;;4.75;3.80;;;;;;;11.82;100.00;96589.59;10368253;28;20224;-74
2022/09/12 19:22:22;;;;;;;6.60;4.00;;;;;;;11.67;100.00;96581.56;10367676;28;20280;-74
2022/09/12 19:27:22;;;;;;;5.22;4.10;;;;;;;11.49;100.00;96582.59;10366996;28;20189;-73
2022/09/12 19:32:22;;;;;;;5.95;4.53;;;;;;;11.42;100.00;96585.06;10367717;28;20252;-74
2022/09/12 19:37:23;;;;;;;6.55;4.15;;;;;;;11.37;100.00;96578.66;10367324;28;20256;-74
2022/09/12 19:42:23;;;;;;;7.97;4.63;;;;;;;11.21;100.00;96579.50;10366948;28;20196;-74
2022/09/12 19:47:27;;;;;;;6.15;4.05;;;;;;;11.13;100.00;96582.91;10367313;28;20260;-73
2022/09/12 19:52:27;;;;;;;7.25;3.63;;;;;;;11.04;100.00;96573.41;10366294;28;20236;-73
2022/09/12 19:57:27;;;;;;;6.22;4.60;;;;;;;11.00;100.00;96572.91;10367048;28;20220;-74
2022/09/12 20:02:28;;;;;;;4.13;3.70;;;;;;;10.93;100.00;96569.31;10366047;28;20193;-74
2022/09/12 20:07:29;;;;;;;4.30;3.45;;;;;;;10.87;100.00;96568.16;10366839;28;20280;-73
2022/09/12 20:12:29;;;;;;;4.13;3.70;;;;;;;10.81;100.00;96570.59;10368649;28;20632;-74
2022/09/12 20:17:30;;;;;;;4.33;3.33;;;;;;;10.73;100.00;96570.59;10373826;28;20219;-73
2022/09/12 20:22:30;;;;;;;5.10;4.43;;;;;;;10.57;100.00;96566.97;10374330;28;20197;-73
2022/09/12 20:27:31;;;;;;;6.17;3.87;;;;;;;10.50;100.00;96568.56;10373897;28;20193;-73
2022/09/12 20:32:31;;;;;;;6.33;3.93;;;;;;;10.44;100.00;96571.81;10372956;28;20292;-73
2022/09/12 20:37:31;;;;;;;5.07;4.13;;;;;;;10.43;100.00;96571.00;10373580;28;20228;-73
2022/09/12 20:42:32;;;;;;;5.80;3.90;;;;;;;10.38;100.00;96556.75;10372690;28;20189;-74
2022/09/12 20:47:32;;;;;;;5.80;4.40;;;;;;;10.20;100.00;96549.78;10372866;28;20268;-73
2022/09/12 20:52:32;;;;;;;9.43;4.93;;;;;;;10.09;100.00;96547.44;10372850;28;20197;-73
2022/09/12 20:57:33;;;;;;;7.53;4.80;;;;;;;10.06;100.00;96547.75;10372127;28;20227;-73
2022/09/12 21:02:33;;;;;;;8.53;4.53;;;;;;;9.98;100.00;96556.41;10354845;28;20296;-73
2022/09/12 21:07:33;;;;;;;5.30;4.80;;;;;;;9.95;100.00;96551.47;10372097;28;20672;-73
2022/09/12 21:12:34;;;;;;;6.77;4.63;;;;;;;9.90;100.00;96551.13;10371741;28;20737;-73
2022/09/12 21:17:34;;;;;;;8.43;5.10;;;;;;;9.86;100.00;96542.75;10354396;28;20593;-74
2022/09/12 21:22:34;;;;;;;7.03;5.17;;;;;;;9.76;100.00;96539.47;10371274;28;20546;-73
2022/09/12 21:27:35;;;;;;;8.70;4.90;;;;;;;9.71;100.00;96542.53;10371390;28;20615;-73
2022/09/12 21:32:37;;;;;;;7.63;4.60;;;;;;;9.71;100.00;96539.94;10370908;28;20538;-73
2022/09/12 21:37:38;;;;;;;5.33;4.83;;;;;;;9.65;100.00;96535.31;10371416;28;20221;-73
2022/09/12 21:42:38;;;;;;;7.20;4.73;;;;;;;9.69;100.00;96523.53;10370483;28;20197;-73
2022/09/12 21:47:38;;;;;;;5.20;4.70;;;;;;;9.78;100.00;96520.00;10371353;28;20664;-73
2022/09/12 21:52:39;;;;;;;6.20;4.97;;;;;;;9.77;100.00;96513.13;10370276;28;20665;-73
2022/09/12 21:57:39;;;;;;;4.97;4.57;;;;;;;9.80;100.00;96509.38;10370493;28;20221;-74
2022/09/12 22:02:40;;;;;;;6.97;4.03;;;;;;;9.93;100.00;96506.34;10369800;28;20287;-74
2022/09/12 22:07:40;;;;;;;6.10;4.07;;;;;;;10.02;100.00;96491.50;10369907;28;20240;-73
2022/09/12 22:12:41;;;;;;;7.57;4.10;;;;;;;10.09;100.00;96479.41;10369146;28;20304;-73
2022/09/12 22:17:42;;;;;;;4.47;3.53;;;;;;;10.16;100.00;96460.28;10369438;28;20304;-74
2022/09/12 22:28:01;;;;;;;4.93;3.57;;;;;;;10.33;100.00;96458.53;10368655;28;20243;-74
2022/09/12 22:33:01;;;;;;;4.20;3.77;;;;;;;10.26;100.00;96460.16;10368962;28;20232;-73
2022/09/12 22:38:02;;;;;;;4.40;3.50;;;;;;;10.31;100.00;96455.25;10367490;28;20232;-73
2022/09/12 22:43:02;;;;;;;7.43;4.30;;;;;;;10.27;100.00;96443.44;10368235;28;20203;-73
2022/09/12 22:48:02;;;;;;;4.35;3.60;;;;;;;10.47;100.00;96438.75;10368263;28;20197;-73
2022/09/12 22:53:03;;;;;;;4.13;3.17;;;;;;;10.57;100.00;96425.50;10368561;28;20204;-73
2022/09/12 22:58:03;;;;;;;3.40;2.90;;;;;;;10.81;100.00;96408.13;10367604;28;20332;-73
2022/09/12 23:03:03;;;;;;;5.72;3.22;;;;;;;10.91;100.00;96400.94;10367989;28;20204;-72
2022/09/12 23:08:04;;;;;;;5.85;3.08;;;;;;;10.88;100.00;96402.06;10367639;28;20197;-72
2022/09/12 23:13:04;;;;;;;4.43;3.08;;;;;;;11.01;100.00;96393.72;10367175;28;20316;-73
2022/09/12 23:18:05;;;;;;;3.63;3.20;;;;;;;10.83;100.00;96379.97;10367627;28;21039;-72
2022/09/12 23:23:05;;;;;;;5.38;3.40;;;;;;;10.75;100.00;96385.22;10349064;28;20192;-72